createdAt,value
2018-09-10T00:00:54.686Z,11.20
2018-09-10T00:03:21.674Z,24.30
2018-09-10T00:05:48.654Z,17.93
2018-09-10T00:08:16.096Z,10.93
2018-09-10T00:10:43.110Z,11.90
2018-09-10T00:13:10.127Z,10.60
2018-09-10T00:15:37.397Z,9.00
2018-09-10T00:18:04.486Z,16.00
2018-09-10T00:20:31.498Z,14.10
2018-09-10T00:22:58.778Z,21.57
2018-09-10T00:25:25.821Z,17.20
2018-09-10T00:27:52.994Z,17.30
2018-09-10T00:30:20.411Z,8.23
2018-09-10T00:32:47.416Z,10.20
2018-09-10T00:35:14.397Z,10.30
2018-09-10T00:37:41.685Z,10.60
2018-09-10T00:40:08.714Z,10.00
2018-09-10T00:42:35.811Z,19.23
2018-09-10T00:45:03.094Z,11.20
2018-09-10T00:47:30.452Z,9.60
2018-09-10T00:49:57.462Z,9.80
2018-09-10T00:52:24.783Z,10.23
2018-09-10T00:54:51.862Z,9.53
2018-09-10T00:57:18.923Z,11.53
2018-09-10T00:59:45.941Z,8.70
2018-09-10T01:02:13.006Z,8.90
2018-09-10T01:04:40.032Z,9.67
2018-09-10T01:07:07.430Z,9.27
2018-09-10T01:09:34.406Z,9.47
2018-09-10T01:12:01.341Z,8.97
2018-09-10T01:17:00.885Z,9.33
2018-09-10T01:19:27.841Z,8.80
2018-09-10T01:21:54.955Z,8.13
2018-09-10T01:24:21.952Z,9.50
2018-09-10T01:26:48.962Z,8.17
2018-09-10T01:29:16.353Z,6.93
2018-09-10T01:31:43.410Z,7.70
2018-09-10T01:34:16.310Z,8.00
2018-09-10T01:36:43.391Z,6.67
2018-09-10T01:39:10.410Z,6.17
2018-09-10T01:41:37.411Z,6.70
2018-09-10T01:44:04.470Z,8.07
2018-09-10T01:46:31.635Z,6.40
2018-09-10T01:48:58.905Z,5.83
2018-09-10T01:51:25.993Z,6.00
2018-09-10T01:53:53.065Z,6.60
2018-09-10T01:56:20.073Z,6.23
2018-09-10T01:58:47.042Z,6.27
2018-09-10T02:01:14.041Z,5.90
2018-09-10T02:03:41.448Z,6.20
2018-09-10T02:06:08.424Z,6.40
2018-09-10T02:08:35.430Z,5.20
2018-09-10T02:11:02.377Z,6.60
2018-09-10T02:13:30.061Z,6.20
2018-09-10T02:15:57.047Z,6.47
2018-09-10T02:18:24.281Z,6.43
2018-09-10T02:20:51.298Z,6.57
2018-09-10T02:23:18.967Z,6.60
2018-09-10T02:25:46.195Z,6.67
2018-09-10T02:28:13.219Z,7.10
2018-09-10T02:30:40.201Z,7.17
2018-09-10T02:33:07.732Z,6.90
2018-09-10T02:35:34.723Z,6.10
2018-09-10T02:38:01.839Z,6.50
2018-09-10T02:40:29.151Z,6.00
2018-09-10T02:42:56.210Z,5.57
2018-09-10T02:45:23.194Z,5.43
2018-09-10T02:47:50.493Z,5.40
2018-09-10T02:50:17.540Z,5.90
2018-09-10T02:52:44.477Z,5.23
2018-09-10T02:55:11.845Z,5.13
2018-09-10T02:57:38.716Z,5.33
2018-09-10T03:00:06.745Z,5.37
2018-09-10T03:02:33.795Z,5.60
2018-09-10T03:05:00.774Z,4.83
2018-09-10T03:07:27.709Z,5.70
2018-09-10T03:09:54.999Z,5.60
2018-09-10T03:12:21.987Z,5.47
2018-09-10T03:14:48.958Z,5.50
2018-09-10T03:17:16.374Z,5.37
2018-09-10T03:19:43.345Z,4.93
2018-09-10T03:22:10.429Z,5.60
2018-09-10T03:24:37.717Z,6.10
2018-09-10T03:27:04.684Z,5.80
2018-09-10T03:29:31.657Z,5.63
2018-09-10T03:31:58.915Z,5.17
2018-09-10T03:34:26.016Z,4.90
2018-09-10T03:36:53.274Z,5.77
2018-09-10T03:39:20.510Z,5.33
2018-09-10T03:41:47.512Z,13.33
2018-09-10T03:44:14.514Z,9.77
2018-09-10T03:46:41.829Z,16.10
2018-09-10T03:49:08.890Z,5.53
2018-09-10T03:51:35.829Z,5.27
2018-09-10T03:54:03.819Z,8.53
2018-09-10T03:56:31.140Z,5.83
2018-09-10T03:58:58.120Z,14.20
2018-09-10T04:01:25.478Z,8.37
2018-09-10T04:03:53.504Z,9.30
2018-09-10T04:06:20.466Z,12.00
2018-09-10T04:08:48.024Z,10.50
2018-09-10T04:11:14.996Z,27.80
2018-09-10T04:13:41.938Z,10.77
2018-09-10T04:16:08.922Z,11.83
2018-09-10T04:18:35.926Z,16.70
2018-09-10T04:21:02.935Z,12.40
2018-09-10T04:23:30.273Z,10.67
2018-09-10T04:25:57.249Z,10.00
2018-09-10T04:28:24.203Z,9.53
2018-09-10T04:30:51.523Z,9.37
2018-09-10T04:33:18.519Z,9.97
2018-09-10T04:35:45.478Z,10.67
2018-09-10T04:38:12.623Z,9.37
2018-09-10T04:40:39.605Z,9.80
2018-09-10T04:43:06.600Z,9.73
2018-09-10T04:45:33.884Z,11.00
2018-09-10T04:48:00.928Z,10.27
2018-09-10T04:50:27.980Z,11.27
2018-09-10T04:52:55.371Z,11.63
2018-09-10T04:55:22.373Z,11.50
2018-09-10T04:57:49.413Z,12.93
2018-09-10T05:00:16.400Z,14.40
2018-09-10T05:02:43.411Z,13.17
2018-09-10T05:05:10.393Z,12.57
2018-09-10T05:07:37.744Z,11.90
2018-09-10T05:10:04.802Z,12.50
2018-09-10T05:12:31.738Z,10.40
2018-09-10T05:14:59.022Z,10.40
2018-09-10T05:17:26.055Z,8.80
2018-09-10T05:19:53.059Z,9.20
2018-09-10T05:22:20.345Z,9.10
2018-09-10T05:24:47.275Z,8.73
2018-09-10T05:27:14.229Z,8.43
2018-09-10T05:29:41.193Z,8.30
2018-09-10T05:32:08.192Z,7.67
2018-09-10T05:34:35.241Z,7.60
2018-09-10T05:37:02.529Z,7.77
2018-09-10T05:39:29.524Z,7.33
2018-09-10T05:41:56.531Z,6.90
2018-09-10T05:44:23.525Z,7.57
2018-09-10T05:46:50.590Z,8.00
2018-09-10T05:49:17.615Z,7.10
2018-09-10T05:51:45.024Z,7.73
2018-09-10T05:54:12.004Z,7.40
2018-09-10T05:56:39.012Z,7.70
2018-09-10T05:59:06.372Z,8.20
2018-09-10T06:01:33.326Z,7.90
2018-09-10T06:04:00.371Z,8.13
2018-09-10T06:06:27.464Z,8.90
2018-09-10T06:08:54.396Z,7.93
2018-09-10T06:11:21.423Z,8.83
2018-09-10T06:13:49.066Z,7.73
2018-09-10T06:16:16.167Z,7.80
2018-09-10T06:18:43.136Z,7.80
2018-09-10T06:21:10.461Z,6.90
2018-09-10T06:23:37.412Z,8.10
2018-09-10T06:26:04.409Z,6.97
2018-09-10T06:28:31.770Z,6.60
2018-09-10T06:30:58.811Z,6.00
2018-09-10T06:33:25.908Z,6.53
2018-09-10T06:35:52.946Z,7.00
2018-09-10T06:38:19.950Z,5.40
2018-09-10T06:40:47.021Z,6.73
2018-09-10T06:43:14.340Z,7.70
2018-09-10T06:45:41.409Z,7.30
2018-09-10T06:48:08.377Z,6.00
2018-09-10T06:50:35.702Z,7.20
2018-09-10T06:53:02.700Z,6.50
2018-09-10T06:55:29.740Z,6.30
2018-09-10T06:57:57.376Z,8.40
2018-09-10T07:00:24.569Z,7.30
2018-09-10T07:02:51.597Z,17.13
2018-09-10T07:05:18.802Z,10.17
2018-09-10T07:07:45.949Z,10.40
2018-09-10T07:10:12.967Z,12.80
2018-09-10T07:12:40.378Z,8.00
2018-09-10T07:15:07.414Z,12.40
2018-09-10T07:17:34.549Z,9.90
2018-09-10T07:20:02.117Z,6.50
2018-09-10T07:22:29.185Z,6.77
2018-09-10T07:24:56.274Z,5.90
2018-09-10T07:27:23.391Z,7.13
2018-09-10T07:29:50.602Z,4.90
2018-09-10T07:32:17.628Z,4.80
2018-09-10T07:34:45.008Z,15.50
2018-09-10T07:37:12.136Z,5.20
2018-09-10T07:39:39.183Z,3.37
2018-09-10T07:42:06.396Z,3.87
2018-09-10T07:44:33.436Z,3.33
2018-09-10T07:47:00.678Z,4.00
2018-09-10T07:49:28.069Z,3.73
2018-09-10T07:51:55.124Z,4.17
2018-09-10T07:54:22.248Z,4.20
2018-09-10T07:56:49.779Z,5.13
2018-09-10T07:59:16.898Z,2.70
2018-09-10T08:01:43.965Z,3.00
2018-09-10T08:04:11.133Z,2.57
2018-09-10T08:06:38.223Z,3.00
2018-09-10T08:09:06.134Z,2.50
2018-09-10T08:11:33.694Z,3.53
2018-09-10T08:14:00.844Z,2.30
2018-09-10T08:16:27.969Z,2.70
2018-09-10T08:18:55.355Z,2.43
2018-09-10T08:21:22.420Z,2.53
2018-09-10T08:23:49.468Z,3.73
2018-09-10T08:26:16.873Z,2.60
2018-09-10T08:28:44.038Z,2.90
2018-09-10T08:31:11.109Z,2.40
2018-09-10T08:33:38.660Z,2.30
2018-09-10T08:36:05.703Z,2.30
2018-09-10T08:38:32.898Z,4.67
2018-09-10T08:41:00.438Z,2.50
2018-09-10T08:43:27.583Z,3.00
2018-09-10T08:45:54.627Z,3.10
2018-09-10T08:48:22.349Z,5.50
2018-09-10T08:50:49.333Z,2.00
2018-09-10T08:53:16.448Z,4.40
2018-09-10T08:55:44.137Z,2.20
2018-09-10T08:58:10.964Z,3.40
2018-09-10T09:00:38.039Z,2.13
2018-09-10T09:03:05.455Z,4.20
2018-09-10T09:05:32.601Z,3.30
2018-09-10T09:07:59.755Z,2.90
2018-09-10T09:10:27.094Z,3.20
2018-09-10T09:12:54.128Z,2.90
2018-09-10T09:15:21.415Z,2.43
2018-09-10T09:17:48.747Z,3.20
2018-09-10T09:20:15.922Z,2.40
2018-09-10T09:22:43.018Z,2.77
2018-09-10T09:25:10.516Z,2.57
2018-09-10T09:27:37.629Z,2.90
2018-09-10T09:30:05.287Z,3.17
2018-09-10T09:32:32.621Z,3.87
2018-09-10T09:34:59.763Z,2.83
2018-09-10T09:37:32.993Z,3.50
2018-09-10T09:40:05.966Z,2.80
2018-09-10T09:42:40.181Z,2.97
2018-09-10T09:45:13.270Z,3.73
2018-09-10T09:47:40.751Z,4.67
2018-09-10T09:50:07.820Z,4.17
2018-09-10T09:52:34.967Z,4.20
2018-09-10T09:55:02.438Z,3.77
2018-09-10T09:57:29.541Z,2.40
2018-09-10T09:59:56.663Z,2.80
2018-09-10T10:02:29.761Z,5.37
2018-09-10T10:04:56.877Z,4.40
2018-09-10T10:07:23.965Z,3.30
2018-09-10T10:09:51.314Z,6.30
2018-09-10T10:12:18.513Z,4.90
2018-09-10T10:14:45.613Z,3.63
2018-09-10T10:17:13.006Z,3.73
2018-09-10T10:19:40.207Z,3.03
2018-09-10T10:22:07.343Z,4.40
2018-09-10T10:24:34.742Z,3.10
2018-09-10T10:27:01.781Z,2.87
2018-09-10T10:29:28.906Z,2.80
2018-09-10T10:31:56.418Z,3.27
2018-09-10T10:34:23.493Z,2.70
2018-09-10T10:36:50.652Z,2.47
2018-09-10T10:39:18.039Z,2.53
2018-09-10T10:41:45.052Z,2.77
2018-09-10T10:44:12.113Z,2.30
2018-09-10T10:46:39.523Z,3.70
2018-09-10T10:49:06.621Z,3.40
2018-09-10T10:51:33.811Z,5.23
2018-09-10T10:54:01.170Z,3.27
2018-09-10T10:56:28.225Z,2.27
2018-09-10T10:58:55.246Z,3.00
2018-09-10T11:01:22.714Z,2.43
2018-09-10T11:03:49.771Z,2.70
2018-09-10T11:06:16.852Z,4.37
2018-09-10T11:08:44.199Z,3.20
2018-09-10T11:11:11.273Z,3.57
2018-09-10T11:13:38.335Z,3.40
2018-09-10T11:16:05.797Z,2.90
2018-09-10T11:18:32.898Z,2.13
2018-09-10T11:21:00.011Z,2.33
2018-09-10T11:23:27.450Z,2.20
2018-09-10T11:25:54.630Z,2.53
2018-09-10T11:28:21.738Z,2.20
2018-09-10T11:30:49.296Z,2.20
2018-09-10T11:33:16.363Z,2.60
2018-09-10T11:35:43.583Z,2.90
2018-09-10T11:38:11.103Z,2.23
2018-09-10T11:40:38.194Z,3.00
2018-09-10T11:43:05.398Z,2.17
2018-09-10T11:45:32.865Z,2.27
2018-09-10T11:47:59.895Z,2.13
2018-09-10T11:50:26.957Z,2.47
2018-09-10T11:52:54.347Z,2.30
2018-09-10T11:55:21.458Z,2.87
2018-09-10T11:57:48.615Z,2.47
2018-09-10T12:00:16.033Z,3.10
2018-09-10T12:02:43.084Z,1.97
2018-09-10T12:05:10.173Z,2.30
2018-09-10T12:07:37.603Z,1.90
2018-09-10T12:10:04.729Z,2.57
2018-09-10T12:12:31.834Z,1.93
2018-09-10T12:15:00.292Z,2.90
2018-09-10T12:17:27.509Z,2.40
2018-09-10T12:19:54.584Z,3.60
2018-09-10T12:22:22.021Z,2.40
2018-09-10T12:24:49.133Z,3.80
2018-09-10T12:27:16.210Z,3.47
2018-09-10T12:29:44.041Z,30.80
2018-09-10T12:32:11.064Z,31.80
2018-09-10T12:34:38.127Z,28.93
2018-09-10T12:37:05.500Z,5.10
2018-09-10T12:39:32.555Z,13.60
2018-09-10T12:41:59.683Z,4.20
2018-09-10T12:44:27.260Z,2.13
2018-09-10T12:46:56.316Z,3.17
2018-09-10T12:49:23.343Z,2.87
2018-09-10T12:51:50.803Z,3.80
2018-09-10T12:54:17.979Z,2.80
2018-09-10T12:56:45.068Z,3.80
2018-09-10T12:59:12.404Z,4.07
2018-09-10T13:01:39.553Z,3.50
2018-09-10T13:04:06.623Z,4.00
2018-09-10T13:06:34.065Z,3.17
2018-09-10T13:09:01.276Z,2.17
2018-09-10T13:11:28.308Z,2.97
2018-09-10T13:13:56.533Z,2.93
2018-09-10T13:16:23.740Z,2.43
2018-09-10T13:18:50.741Z,2.40
2018-09-10T13:21:18.612Z,2.63
2018-09-10T13:23:45.798Z,2.43
2018-09-10T13:26:12.837Z,2.60
2018-09-10T13:28:40.161Z,4.50
2018-09-10T13:31:07.229Z,2.20
2018-09-10T13:33:34.395Z,3.00
2018-09-10T13:36:01.470Z,4.37
2018-09-10T13:38:28.516Z,2.00
2018-09-10T13:40:55.548Z,2.60
2018-09-10T13:43:22.931Z,2.63
2018-09-10T13:45:50.064Z,2.87
2018-09-10T13:48:17.101Z,2.50
2018-09-10T13:50:44.504Z,3.00
2018-09-10T13:53:11.664Z,2.67
2018-09-10T13:55:38.722Z,3.50
2018-09-10T13:58:05.797Z,3.30
2018-09-10T14:00:32.821Z,3.03
2018-09-10T14:02:59.911Z,3.73
2018-09-10T14:05:27.304Z,3.37
2018-09-10T14:07:54.339Z,2.70
2018-09-10T14:10:21.512Z,2.97
2018-09-10T14:12:49.002Z,4.07
2018-09-10T14:15:16.034Z,2.80
2018-09-10T14:17:43.109Z,4.10
2018-09-10T14:20:10.428Z,4.77
2018-09-10T14:22:37.595Z,2.27
2018-09-10T14:25:04.645Z,4.17
2018-09-10T14:27:32.069Z,2.57
2018-09-10T14:29:59.132Z,3.27
2018-09-10T14:32:26.328Z,1.90
2018-09-10T14:34:53.793Z,5.43
2018-09-10T14:37:20.963Z,3.30
2018-09-10T14:39:48.089Z,3.43
2018-09-10T14:42:15.580Z,2.53
2018-09-10T14:44:42.744Z,3.10
2018-09-10T14:47:09.768Z,2.27
2018-09-10T14:49:37.095Z,7.23
2018-09-10T14:52:04.124Z,2.87
2018-09-10T14:54:31.279Z,3.53
2018-09-10T14:56:58.691Z,2.93
2018-09-10T14:59:25.727Z,2.03
2018-09-10T15:01:52.764Z,2.53
2018-09-10T15:04:20.558Z,2.60
2018-09-10T15:06:47.613Z,2.47
2018-09-10T15:09:14.732Z,3.33
2018-09-10T15:11:42.096Z,2.20
2018-09-10T15:14:09.236Z,2.77
2018-09-10T15:16:36.322Z,2.60
2018-09-10T15:19:03.640Z,3.20
2018-09-10T15:21:30.628Z,2.87
2018-09-10T15:23:57.787Z,2.83
2018-09-10T15:26:25.293Z,2.67
2018-09-10T15:28:52.323Z,3.60
2018-09-10T15:31:19.331Z,4.43
2018-09-10T15:33:46.753Z,4.33
2018-09-10T15:36:14.036Z,4.00
2018-09-10T15:38:40.967Z,2.70
2018-09-10T15:41:08.260Z,3.70
2018-09-10T15:43:35.304Z,4.30
2018-09-10T15:46:02.611Z,4.30
2018-09-10T15:48:29.991Z,3.40
2018-09-10T15:50:57.055Z,6.67
2018-09-10T15:53:24.161Z,9.83
2018-09-10T15:55:51.724Z,5.63
2018-09-10T15:58:18.824Z,6.40
2018-09-10T16:00:45.762Z,5.33
2018-09-10T16:03:13.061Z,6.00
2018-09-10T16:05:39.993Z,7.23
2018-09-10T16:08:06.987Z,6.77
2018-09-10T16:10:34.209Z,5.30
2018-09-10T16:13:01.208Z,6.73
2018-09-10T16:15:28.146Z,6.67
2018-09-10T16:17:55.556Z,6.83
2018-09-10T16:20:22.520Z,7.60
2018-09-10T16:22:49.446Z,9.70
2018-09-10T16:25:16.905Z,8.50
2018-09-10T16:27:44.042Z,7.77
2018-09-10T16:30:10.965Z,7.80
2018-09-10T16:32:38.355Z,5.53
2018-09-10T16:35:05.377Z,6.70
2018-09-10T16:37:32.509Z,7.93
2018-09-10T16:39:59.807Z,8.07
2018-09-10T16:42:26.781Z,5.70
2018-09-10T16:44:53.854Z,13.73
2018-09-10T16:47:21.461Z,7.73
2018-09-10T16:49:48.465Z,9.77
2018-09-10T16:52:15.517Z,12.63
2018-09-10T16:54:42.916Z,13.37
2018-09-10T16:57:10.023Z,7.77
2018-09-10T16:59:36.984Z,7.13
2018-09-10T17:02:04.246Z,4.90
2018-09-10T17:04:31.224Z,11.13
2018-09-10T17:06:58.339Z,5.17
2018-09-10T17:09:25.780Z,4.73
2018-09-10T17:11:52.839Z,5.93
2018-09-10T17:14:19.866Z,6.60
2018-09-10T17:16:47.255Z,4.83
2018-09-10T17:19:14.351Z,6.73
2018-09-10T17:21:41.497Z,6.87
2018-09-10T17:24:08.913Z,5.03
2018-09-10T17:26:35.951Z,4.20
2018-09-10T17:29:03.156Z,4.53
2018-09-10T17:31:30.479Z,3.97
2018-09-10T17:33:57.528Z,5.10
2018-09-10T17:36:24.570Z,4.90
2018-09-10T17:38:52.016Z,4.60
2018-09-10T17:41:19.194Z,7.87
2018-09-10T17:43:46.137Z,9.70
2018-09-10T17:46:13.984Z,6.50
2018-09-10T17:48:41.093Z,8.00
2018-09-10T17:51:08.136Z,5.33
2018-09-10T17:53:35.704Z,8.13
2018-09-10T17:56:02.617Z,8.40
2018-09-10T17:58:29.732Z,5.47
2018-09-10T18:00:57.150Z,3.90
2018-09-10T18:03:24.124Z,4.60
2018-09-10T18:05:51.130Z,5.30
2018-09-10T18:08:18.538Z,4.97
2018-09-10T18:10:45.611Z,4.70
2018-09-10T18:13:12.515Z,6.40
2018-09-10T18:15:39.773Z,4.87
2018-09-10T18:18:06.914Z,6.73
2018-09-10T18:20:34.124Z,5.13
2018-09-10T18:23:01.279Z,4.73
2018-09-10T18:25:28.252Z,4.53
2018-09-10T18:27:55.442Z,4.07
2018-09-10T18:30:22.793Z,6.17
2018-09-10T18:32:49.719Z,4.37
2018-09-10T18:35:16.640Z,4.93
2018-09-10T18:37:44.126Z,4.53
2018-09-10T18:40:11.119Z,4.40
2018-09-10T18:42:38.057Z,4.93
2018-09-10T18:45:05.573Z,4.80
2018-09-10T18:47:32.608Z,5.97
2018-09-10T18:49:59.664Z,5.33
2018-09-10T18:52:27.030Z,5.10
2018-09-10T18:54:54.012Z,5.03
2018-09-10T18:57:21.071Z,5.10
2018-09-10T18:59:48.453Z,7.23
2018-09-10T19:02:15.491Z,7.00
2018-09-10T19:04:42.707Z,6.80
2018-09-10T19:07:10.664Z,7.10
2018-09-10T19:09:39.208Z,6.80
2018-09-10T19:12:06.995Z,6.40
2018-09-10T19:14:36.236Z,8.80
2018-09-10T19:17:04.262Z,5.47
2018-09-10T19:19:33.289Z,5.27
2018-09-10T19:22:02.106Z,5.30
2018-09-10T19:24:29.678Z,5.17
2018-09-10T19:26:56.659Z,7.17
2018-09-10T19:29:24.317Z,6.47
2018-09-10T19:31:51.262Z,6.20
2018-09-10T19:34:18.196Z,5.53
2018-09-10T19:36:45.670Z,6.30
2018-09-10T19:39:12.613Z,5.20
2018-09-10T19:41:39.775Z,5.00
2018-09-10T19:44:07.150Z,5.97
2018-09-10T19:46:34.077Z,6.10
2018-09-10T19:49:01.058Z,6.07
2018-09-10T19:51:28.361Z,17.67
2018-09-10T19:53:55.378Z,5.77
2018-09-10T19:56:22.317Z,7.63
2018-09-10T19:58:49.601Z,6.80
2018-09-10T20:01:16.524Z,5.30
2018-09-10T20:03:43.609Z,11.87
2018-09-10T20:06:10.852Z,5.07
2018-09-10T20:08:37.837Z,4.40
2018-09-10T20:11:05.049Z,5.20
2018-09-10T20:13:32.300Z,7.87
2018-09-10T20:15:59.299Z,7.70
2018-09-10T20:18:26.340Z,53.43
2018-09-10T20:20:53.565Z,13.10
2018-09-10T20:23:20.623Z,7.00
2018-09-10T20:25:47.615Z,6.77
2018-09-10T20:28:14.689Z,10.80
2018-09-10T20:30:41.837Z,9.87
2018-09-10T20:33:08.758Z,11.00
2018-09-10T20:35:36.067Z,7.63
2018-09-10T20:38:03.093Z,8.83
2018-09-10T20:40:30.080Z,8.80
2018-09-10T20:42:57.516Z,13.47
2018-09-10T20:45:24.487Z,13.60
2018-09-10T20:47:51.499Z,10.57
2018-09-10T20:50:18.896Z,11.50
2018-09-10T20:52:46.085Z,8.80
2018-09-10T20:55:13.076Z,6.10
2018-09-10T20:57:40.412Z,8.37
2018-09-10T21:00:07.430Z,7.87
2018-09-10T21:02:34.440Z,8.33
2018-09-10T21:05:01.903Z,8.67
2018-09-10T21:07:29.063Z,10.57
2018-09-10T21:09:55.989Z,16.67
2018-09-10T21:12:23.291Z,12.10
2018-09-10T21:14:50.239Z,14.90
2018-09-10T21:17:17.202Z,12.20
2018-09-10T21:19:44.578Z,21.43
2018-09-10T21:22:11.756Z,12.40
2018-09-10T21:24:38.772Z,11.83
2018-09-10T21:27:06.164Z,13.07
2018-09-10T21:29:34.264Z,7.70
2018-09-10T21:32:01.261Z,11.37
2018-09-10T21:34:28.666Z,10.33
2018-09-10T21:36:55.676Z,8.67
2018-09-10T21:39:22.753Z,12.73
2018-09-10T21:41:50.021Z,16.30
2018-09-10T21:44:48.413Z,9.00
2018-09-10T21:47:15.699Z,8.70
2018-09-10T21:49:42.812Z,15.50
2018-09-10T21:52:09.846Z,8.03
2018-09-10T21:54:37.134Z,11.40
2018-09-10T21:57:04.102Z,10.27
2018-09-10T21:59:31.112Z,7.97
2018-09-10T22:01:58.428Z,6.73
2018-09-10T22:04:25.528Z,9.83
2018-09-10T22:06:52.523Z,6.00
2018-09-10T22:09:19.864Z,6.83
2018-09-10T22:11:52.818Z,5.10
2018-09-10T22:14:20.410Z,5.37
2018-09-10T22:16:49.203Z,6.60
2018-09-10T22:19:18.081Z,5.57
2018-09-10T22:21:45.547Z,7.20
2018-09-10T22:24:12.614Z,7.37
2018-09-10T22:26:39.882Z,5.60
2018-09-10T22:29:07.232Z,5.30
2018-09-10T22:31:34.545Z,5.97
2018-09-10T22:34:01.655Z,5.83
2018-09-10T22:36:28.904Z,5.20
2018-09-10T22:38:55.976Z,5.33
2018-09-10T22:41:23.029Z,6.40
2018-09-10T22:43:50.393Z,4.83
2018-09-10T22:46:17.484Z,5.00
2018-09-10T22:48:44.545Z,5.00
2018-09-10T22:51:11.810Z,6.53
2018-09-10T22:53:38.784Z,6.33
2018-09-10T22:56:05.783Z,5.30
2018-09-10T22:58:33.143Z,5.37
2018-09-10T23:01:00.082Z,5.40
2018-09-10T23:03:27.105Z,5.50
2018-09-10T23:05:54.403Z,5.33
2018-09-10T23:08:21.531Z,5.10
2018-09-10T23:10:48.552Z,7.33
2018-09-10T23:13:15.537Z,5.33
2018-09-10T23:15:42.530Z,5.63
2018-09-10T23:18:09.629Z,6.33
2018-09-10T23:20:36.933Z,5.73
2018-09-10T23:23:03.930Z,6.47
2018-09-10T23:25:30.927Z,5.67
2018-09-10T23:27:58.322Z,6.00
2018-09-10T23:30:25.477Z,4.83
2018-09-10T23:32:52.448Z,6.00
2018-09-10T23:35:19.804Z,4.30
2018-09-10T23:37:46.889Z,8.50
2018-09-10T23:40:13.878Z,7.30
2018-09-10T23:42:41.154Z,5.00
2018-09-10T23:45:08.220Z,5.70
2018-09-10T23:47:35.222Z,4.90
2018-09-10T23:50:02.504Z,5.70
2018-09-10T23:52:29.520Z,5.10
2018-09-10T23:54:56.594Z,4.07
2018-09-10T23:57:23.850Z,5.43
2018-09-10T23:59:50.837Z,5.30
